Time;durP1;ratioP1;P1;durP2;ratioP2;P2;SDS_P1;SDS_P2;PMS_P1;PMS_P2;Temp;Humidity;BMP_temperature;BMP_pressure;BME280_temperature;BME280_humidity;BME280_pressure;Samples;Min_cycle;Max_cycle;Signal;HPM_P1;HPM_P2
2023/01/01 00:02:55;;;;;;;13.35;8.35;;;;;;;16.70;37.99;99891.72;10306670;28;20241;-82
2023/01/01 00:08:17;;;;;;;15.02;9.05;;;;;;;17.14;37.79;99894.41;10316134;28;20249;-88
2023/01/01 00:13:40;;;;;;;13.52;8.00;;;;;;;16.79;37.28;99909.34;10333200;28;20233;-90
2023/01/01 00:19:02;;;;;;;14.02;7.13;;;;;;;17.10;36.64;99912.13;10306279;28;20229;-81
2023/01/01 00:24:25;;;;;;;17.27;8.15;;;;;;;17.31;36.57;99908.16;10314231;28;20229;-85
2023/01/01 00:29:47;;;;;;;13.82;7.57;;;;;;;17.02;37.76;99921.66;10301897;28;20256;-80
2023/01/01 00:35:09;;;;;;;17.00;8.77;;;;;;;16.53;38.49;99898.59;10311446;28;20233;-79
2023/01/01 00:40:31;;;;;;;17.40;8.15;;;;;;;16.87;37.62;99899.81;10315691;28;20303;-82
2023/01/01 00:45:53;;;;;;;13.68;8.10;;;;;;;16.80;37.81;99888.34;10320026;28;20550;-80
2023/01/01 00:51:17;;;;;;;18.25;8.35;;;;;;;16.68;37.85;99894.13;10338202;28;20273;-85
2023/01/01 00:56:39;;;;;;;22.05;12.07;;;;;;;16.38;38.43;99905.91;10321929;28;20372;-82
2023/01/01 01:02:02;;;;;;;17.70;12.93;;;;;;;16.15;38.77;99910.53;10325494;28;20248;-86
2023/01/01 01:07:24;;;;;;;13.50;8.07;;;;;;;16.31;39.13;99925.53;10333958;28;20213;-84
2023/01/01 01:12:47;;;;;;;13.95;8.13;;;;;;;16.45;37.58;99912.94;10316710;28;20206;-86
2023/01/01 01:18:09;;;;;;;10.60;6.40;;;;;;;16.12;37.78;99922.56;10342002;28;20201;-84
2023/01/01 01:23:32;;;;;;;11.45;6.13;;;;;;;16.26;37.73;99916.50;10330166;28;20230;-85
2023/01/01 01:28:55;;;;;;;9.10;6.03;;;;;;;16.67;36.58;99929.28;10314643;28;20272;-85
2023/01/01 01:34:17;;;;;;;13.27;5.82;;;;;;;16.43;36.81;99935.94;10341383;28;20198;-88
2023/01/01 01:39:40;;;;;;;10.80;5.00;;;;;;;15.99;37.39;99929.47;10328621;28;20222;-82
2023/01/01 01:45:05;;;;;;;10.77;4.85;;;;;;;16.18;37.06;99938.06;10301127;28;20202;-85
2023/01/01 01:50:37;;;;;;;8.07;3.42;;;;;;;16.00;36.67;99936.78;10340363;28;20218;-87
2023/01/01 01:56:02;;;;;;;6.10;3.88;;;;;;;16.74;35.88;99930.28;10323612;28;20218;-85
2023/01/01 02:01:25;;;;;;;4.47;2.58;;;;;;;15.51;36.76;99948.28;10336750;28;20492;-85
2023/01/01 02:06:47;;;;;;;4.38;2.28;;;;;;;15.94;36.13;99946.69;10333879;28;20239;-86
2023/01/01 02:12:09;;;;;;;3.63;2.05;;;;;;;16.32;36.54;99965.97;10333662;28;20252;-83
2023/01/01 02:17:43;;;;;;;6.20;1.90;;;;;;;15.95;36.39;99973.81;10336177;28;20198;-87
2023/01/01 02:23:27;;;;;;;6.90;2.38;;;;;;;15.41;36.74;99962.91;10347993;28;20198;-83
2023/01/01 02:29:01;;;;;;;4.60;2.00;;;;;;;15.82;36.23;99967.38;10332060;28;20209;-89
2023/01/01 02:34:26;;;;;;;4.13;1.40;;;;;;;15.90;35.90;99959.94;10317702;28;20210;-87
2023/01/01 02:39:57;;;;;;;4.97;1.27;;;;;;;15.17;37.06;99951.66;10317083;28;20226;-82
2023/01/01 02:45:19;;;;;;;3.65;1.10;;;;;;;16.21;35.53;99943.06;10332532;28;20603;-84
2023/01/01 02:50:41;;;;;;;4.45;1.23;;;;;;;15.85;36.10;99960.19;10310453;28;20225;-85
2023/01/01 02:56:07;;;;;;;5.40;1.20;;;;;;;16.30;35.72;99969.16;10331898;28;20593;-88
2023/01/01 03:01:47;;;;;;;4.07;1.40;;;;;;;15.68;36.48;99947.16;10316751;28;20202;-86
2023/01/01 03:07:20;;;;;;;2.13;1.00;;;;;;;15.94;35.78;99977.81;10337152;28;20206;-88
2023/01/01 03:13:11;;;;;;;1.50;0.90;;;;;;;15.93;36.02;99981.81;10329467;28;20473;-85
2023/01/01 03:19:12;;;;;;;3.83;0.88;;;;;;;15.66;36.14;99981.47;10339273;28;20186;-84
2023/01/01 03:24:39;;;;;;;5.43;0.80;;;;;;;16.01;35.87;99995.00;10326451;28;20500;-82
2023/01/01 03:30:07;;;;;;;1.45;0.75;;;;;;;16.19;35.31;99990.69;10338021;28;20268;-87
2023/01/01 03:35:37;;;;;;;1.27;0.52;;;;;;;16.32;35.09;99986.59;10330507;28;20190;-87
2023/01/01 03:41:04;;;;;;;1.88;0.80;;;;;;;15.61;36.81;99993.03;10323324;28;20213;-84
2023/01/01 03:46:29;;;;;;;2.33;0.93;;;;;;;15.56;37.25;99979.13;10322112;28;20205;-83
2023/01/01 03:52:15;;;;;;;4.68;0.80;;;;;;;15.55;37.04;99993.63;10332643;28;20209;-85
2023/01/01 03:57:45;;;;;;;4.80;1.13;;;;;;;15.54;36.65;100003.28;10333220;28;20293;-88
2023/01/01 04:03:33;;;;;;;1.50;0.60;;;;;;;16.05;36.89;99995.91;10331876;28;20198;-86
2023/01/01 04:08:57;;;;;;;7.13;0.95;;;;;;;15.79;36.64;99998.38;10326884;28;20311;-82
2023/01/01 04:14:34;;;;;;;2.22;0.50;;;;;;;15.96;36.57;100020.72;10329686;28;20593;-88
2023/01/01 04:19:56;;;;;;;2.50;0.70;;;;;;;15.63;37.06;100035.91;10310901;28;20579;-87
2023/01/01 04:25:18;;;;;;;2.40;0.88;;;;;;;16.22;36.21;100043.75;10328232;28;20249;-85
2023/01/01 04:30:41;;;;;;;4.93;1.00;;;;;;;16.30;36.73;100041.94;10328591;28;20506;-87
2023/01/01 04:35:42;;;;;;;2.28;0.73;;;;;;;16.26;36.30;100027.69;10322383;28;20198;-85
2023/01/01 04:41:04;;;;;;;2.28;0.55;;;;;;;15.86;37.68;100012.75;10320332;28;20292;-84
2023/01/01 04:46:26;;;;;;;2.30;0.60;;;;;;;16.16;37.11;100025.34;10326305;28;20225;-89
2023/01/01 04:51:48;;;;;;;3.15;0.60;;;;;;;16.08;37.87;100034.00;10321684;28;20229;-85
2023/01/01 04:57:11;;;;;;;3.13;0.57;;;;;;;15.87;39.09;100023.72;10315059;28;20260;-87
2023/01/01 05:02:33;;;;;;;2.92;0.70;;;;;;;15.76;38.73;100027.41;10323387;28;20198;-90
2023/01/01 05:07:55;;;;;;;4.28;0.60;;;;;;;15.87;38.42;100028.53;10328450;28;20237;-86
2023/01/01 05:13:17;;;;;;;2.63;0.60;;;;;;;16.28;37.87;100061.31;10314288;28;20229;-86
2023/01/01 05:18:39;;;;;;;1.23;0.60;;;;;;;16.30;37.82;100065.41;10309842;28;20206;-82
2023/01/01 05:24:04;;;;;;;3.85;0.75;;;;;;;16.21;37.66;100044.09;10325929;28;20221;-89
2023/01/01 05:29:26;;;;;;;4.07;0.90;;;;;;;15.68;39.18;100061.09;10340459;28;20214;-87
2023/01/01 05:34:48;;;;;;;2.58;0.82;;;;;;;16.07;38.97;100050.16;10316468;28;20195;-84
2023/01/01 05:40:10;;;;;;;3.42;0.90;;;;;;;15.82;39.34;100042.91;10330219;28;20507;-87
2023/01/01 05:45:33;;;;;;;7.70;0.73;;;;;;;15.96;38.75;100049.00;10318541;28;20244;-84
2023/01/01 05:51:01;;;;;;;3.10;0.88;;;;;;;15.59;39.60;100068.06;10323846;28;20221;-86
2023/01/01 05:56:25;;;;;;;6.27;0.80;;;;;;;15.87;39.09;100076.63;10333278;28;20261;-83
2023/01/01 06:01:47;;;;;;;2.40;0.68;;;;;;;15.63;39.33;100098.13;10335174;28;20186;-86
2023/01/01 06:07:09;;;;;;;2.97;1.13;;;;;;;15.72;41.44;100106.47;10334799;28;20607;-87
2023/01/01 06:12:31;;;;;;;2.50;0.70;;;;;;;15.15;41.83;100120.69;10332037;28;20285;-86
2023/01/01 06:17:53;;;;;;;3.10;0.85;;;;;;;15.36;42.27;100148.91;10335119;28;20263;-82
2023/01/01 06:23:15;;;;;;;2.88;0.80;;;;;;;15.66;43.88;100142.63;10331741;28;20214;-81
2023/01/01 06:28:38;;;;;;;1.80;0.60;;;;;;;15.31;43.47;100130.94;10340814;28;20218;-82
2023/01/01 06:34:00;;;;;;;3.92;0.85;;;;;;;15.13;43.96;100148.47;10327287;28;20224;-82
2023/01/01 06:39:22;;;;;;;3.20;0.70;;;;;;;14.90;44.35;100163.00;10343214;28;20221;-83
2023/01/01 06:44:45;;;;;;;3.83;1.00;;;;;;;15.96;41.72;100173.47;10329755;28;20268;-83
2023/01/01 06:50:09;;;;;;;6.80;0.82;;;;;;;15.30;43.06;100177.34;10330522;28;20213;-84
2023/01/01 06:55:31;;;;;;;3.58;0.77;;;;;;;15.61;42.76;100185.31;10322389;28;20226;-85
2023/01/01 07:00:53;;;;;;;2.65;0.60;;;;;;;15.79;41.54;100207.66;10335743;28;20193;-81
2023/01/01 07:06:15;;;;;;;1.58;0.57;;;;;;;16.08;40.63;100201.75;10334182;28;20506;-87
2023/01/01 07:11:39;;;;;;;8.07;1.10;;;;;;;15.86;41.66;100222.06;10330538;28;20221;-87
2023/01/01 07:17:01;;;;;;;2.20;0.80;;;;;;;15.62;42.55;100214.41;10328693;28;20245;-88
2023/01/01 07:22:23;;;;;;;2.97;0.57;;;;;;;15.52;44.54;100226.16;10317788;28;20201;-89
2023/01/01 07:27:45;;;;;;;2.87;0.83;;;;;;;15.63;44.34;100227.38;10346262;28;20249;-83
2023/01/01 07:33:12;;;;;;;3.45;0.77;;;;;;;15.44;44.46;100229.91;10331747;28;20206;-83
2023/01/01 07:38:34;;;;;;;6.50;1.20;;;;;;;15.34;44.40;100253.78;10315563;28;20198;-84
2023/01/01 07:43:56;;;;;;;3.10;0.77;;;;;;;15.68;44.76;100270.34;10330676;28;20193;-87
2023/01/01 07:49:18;;;;;;;8.13;0.98;;;;;;;14.85;47.14;100273.41;10327694;28;20222;-84
2023/01/01 07:54:42;;;;;;;3.33;1.00;;;;;;;14.99;46.67;100276.72;10310188;28;20300;-86
2023/01/01 08:00:05;;;;;;;5.03;1.00;;;;;;;15.10;47.63;100287.63;10316764;28;20206;-83
2023/01/01 08:05:27;;;;;;;3.63;0.90;;;;;;;14.24;50.23;100278.63;10314819;28;20325;-87
2023/01/01 08:10:49;;;;;;;3.13;0.90;;;;;;;14.76;49.60;100302.84;10325825;28;20304;-82
2023/01/01 08:16:11;;;;;;;2.77;0.70;;;;;;;14.47;51.50;100303.72;10324526;28;20587;-86
2023/01/01 08:21:33;;;;;;;2.28;1.00;;;;;;;14.92;49.99;100296.25;10328654;28;20202;-85
2023/01/01 08:26:55;;;;;;;3.38;0.93;;;;;;;14.80;50.34;100313.13;10313653;28;20248;-83
2023/01/01 08:32:17;;;;;;;4.30;0.97;;;;;;;14.85;50.59;100332.69;10325974;28;20554;-82
2023/01/01 08:37:40;;;;;;;2.88;1.05;;;;;;;14.39;51.55;100335.63;10330878;28;20201;-85
2023/01/01 08:43:03;;;;;;;3.90;1.30;;;;;;;14.73;50.57;100323.31;10317134;28;20550;-84
2023/01/01 08:48:25;;;;;;;2.03;0.70;;;;;;;15.06;50.14;100327.03;10324673;28;20214;-87
2023/01/01 08:53:47;;;;;;;3.65;0.85;;;;;;;14.90;49.45;100360.72;10324745;28;20257;-86
2023/01/01 08:59:10;;;;;;;2.78;0.93;;;;;;;15.18;49.09;100346.03;10321372;28;20217;-81
2023/01/01 09:04:33;;;;;;;5.68;1.20;;;;;;;14.91;49.51;100365.19;10304130;28;20225;-86
2023/01/01 09:09:55;;;;;;;4.10;0.83;;;;;;;15.18;48.38;100377.94;10321620;28;20276;-83
2023/01/01 09:15:17;;;;;;;4.95;1.45;;;;;;;15.29;47.95;100375.50;10314293;28;20598;-87
2023/01/01 09:20:40;;;;;;;2.93;1.20;;;;;;;14.97;48.79;100397.72;10336167;28;20202;-87
2023/01/01 09:26:03;;;;;;;5.00;1.07;;;;;;;15.18;48.15;100402.53;10334269;28;20193;-83
2023/01/01 09:31:26;;;;;;;3.70;1.03;;;;;;;15.30;47.87;100423.22;10332047;28;20213;-85
2023/01/01 09:36:48;;;;;;;4.30;1.10;;;;;;;15.52;47.10;100426.88;10331030;28;20233;-84
2023/01/01 09:42:42;;;;;;;3.80;1.00;;;;;;;15.60;46.53;100421.16;10324650;28;20233;-89
2023/01/01 09:48:10;;;;;;;7.82;1.48;;;;;;;16.02;45.54;100421.06;10329869;28;20603;-84
2023/01/01 09:53:43;;;;;;;3.78;0.95;;;;;;;15.52;47.08;100433.34;10333590;28;20256;-88
2023/01/01 09:59:08;;;;;;;4.13;0.93;;;;;;;15.20;47.91;100445.41;10339580;28;20434;-87
2023/01/01 10:04:58;;;;;;;4.32;0.98;;;;;;;15.83;46.13;100446.22;10322884;28;20218;-85
2023/01/01 10:10:41;;;;;;;5.30;0.98;;;;;;;14.91;48.33;100458.41;10329847;28;20773;-90
2023/01/01 10:16:17;;;;;;;6.55;1.25;;;;;;;15.77;46.73;100451.28;10318349;28;20225;-90
2023/01/01 10:21:42;;;;;;;3.72;1.13;;;;;;;15.44;47.31;100456.88;10331208;28;20234;-88
2023/01/01 10:27:05;;;;;;;6.07;1.23;;;;;;;15.21;48.66;100462.03;10329497;28;20201;-87
2023/01/01 10:32:30;;;;;;;7.67;1.60;;;;;;;15.15;48.49;100454.91;10324271;28;20288;-82
2023/01/01 10:37:52;;;;;;;4.83;1.07;;;;;;;15.01;48.38;100436.56;10337758;28;20225;-81
2023/01/01 10:43:14;;;;;;;3.78;1.30;;;;;;;15.73;47.19;100427.69;10308615;28;20264;-83
2023/01/01 10:48:37;;;;;;;2.77;0.90;;;;;;;15.98;46.25;100437.06;10337072;28;20261;-83
2023/01/01 10:54:00;;;;;;;4.40;0.93;;;;;;;15.23;48.09;100437.09;10310683;28;20650;-88
2023/01/01 10:59:34;;;;;;;3.43;0.70;;;;;;;15.59;47.70;100425.16;10327755;28;20608;-84
2023/01/01 11:05:16;;;;;;;3.10;1.13;;;;;;;15.37;48.37;100411.41;10322214;28;20248;-88
2023/01/01 11:10:40;;;;;;;2.38;0.88;;;;;;;15.90;46.53;100415.38;10322522;28;20256;-86
2023/01/01 11:16:09;;;;;;;3.85;1.00;;;;;;;15.54;47.84;100411.22;10338955;28;20288;-88
2023/01/01 11:21:33;;;;;;;4.72;1.00;;;;;;;15.65;47.16;100435.06;10317375;28;20234;-88
2023/01/01 11:27:18;;;;;;;5.57;1.02;;;;;;;15.61;47.43;100439.78;10324459;28;20214;-82
2023/01/01 11:32:41;;;;;;;3.15;1.13;;;;;;;16.17;46.48;100443.00;10335808;28;20248;-85
2023/01/01 11:38:03;;;;;;;5.18;1.25;;;;;;;15.66;47.43;100464.16;10337212;28;20288;-82
2023/01/01 11:43:28;;;;;;;3.72;1.13;;;;;;;15.91;47.32;100465.09;10313574;28;20311;-84
2023/01/01 11:48:52;;;;;;;6.18;1.10;;;;;;;15.79;47.38;100479.19;10304927;28;20303;-90
2023/01/01 11:54:34;;;;;;;7.93;1.40;;;;;;;16.10;47.20;100462.56;10325012;28;20209;-88
2023/01/01 12:00:03;;;;;;;5.47;1.33;;;;;;;16.23;46.54;100478.44;10323524;28;20227;-82
2023/01/01 12:06:03;;;;;;;5.10;1.10;;;;;;;16.36;45.69;100482.94;10337159;28;21165;-80
2023/01/01 12:11:33;;;;;;;4.47;1.52;;;;;;;15.62;47.76;100488.69;10327009;28;20249;-84
2023/01/01 12:17:04;;;;;;;6.65;1.90;;;;;;;16.24;46.27;100473.59;10339192;28;20538;-86
2023/01/01 12:22:26;;;;;;;5.03;1.50;;;;;;;15.91;47.26;100465.91;10309674;28;20245;-84
2023/01/01 12:27:49;;;;;;;5.03;1.27;;;;;;;15.85;47.35;100460.84;10321137;28;20705;-85
2023/01/01 12:33:32;;;;;;;5.43;1.40;;;;;;;16.04;46.44;100444.16;10319363;28;20257;-81
2023/01/01 12:39:26;;;;;;;3.20;0.90;;;;;;;16.08;46.87;100447.94;10324577;28;20245;-90
2023/01/01 12:45:13;;;;;;;6.07;1.30;;;;;;;15.78;47.02;100450.06;10322426;28;20492;-79
2023/01/01 12:51:04;;;;;;;6.27;1.67;;;;;;;16.25;46.31;100444.13;10312808;28;20701;-88
2023/01/01 12:56:49;;;;;;;3.20;1.17;;;;;;;15.69;47.40;100453.00;10341235;28;20699;-82
2023/01/01 13:02:26;;;;;;;7.90;1.25;;;;;;;15.54;47.60;100459.28;10310453;28;20673;-85
2023/01/01 13:07:52;;;;;;;6.20;1.55;;;;;;;15.93;46.39;100457.91;10320516;28;20233;-88
2023/01/01 13:13:16;;;;;;;3.53;1.02;;;;;;;15.93;46.18;100463.56;10330207;28;20397;-81
2023/01/01 13:18:39;;;;;;;3.83;1.13;;;;;;;16.13;45.45;100461.03;10312578;28;20252;-81
2023/01/01 13:24:18;;;;;;;4.18;0.98;;;;;;;15.32;47.25;100453.97;10327869;28;20279;-81
2023/01/01 13:29:43;;;;;;;6.63;1.10;;;;;;;16.57;44.11;100453.69;10319018;28;20343;-82
2023/01/01 13:35:15;;;;;;;3.95;1.10;;;;;;;15.26;47.33;100458.97;10329555;28;20293;-80
2023/01/01 13:40:48;;;;;;;7.95;1.38;;;;;;;15.73;46.70;100472.09;10334521;28;20284;-79
2023/01/01 13:46:10;;;;;;;3.67;0.90;;;;;;;15.94;45.56;100481.38;10317030;28;20229;-82
2023/01/01 13:51:50;;;;;;;6.78;1.45;;;;;;;15.94;46.04;100487.84;10308941;28;20261;-81
2023/01/01 13:57:36;;;;;;;6.00;1.30;;;;;;;15.18;47.12;100495.78;10330870;28;20303;-81
2023/01/01 14:03:01;;;;;;;7.43;1.42;;;;;;;16.25;44.61;100481.75;10316343;28;20626;-79
2023/01/01 14:08:27;;;;;;;6.03;1.42;;;;;;;16.10;44.75;100473.88;10301058;28;20237;-81
2023/01/01 14:13:49;;;;;;;6.13;0.90;;;;;;;16.19;44.21;100485.13;10328404;28;20261;-85
2023/01/01 14:19:11;;;;;;;7.05;1.45;;;;;;;15.89;45.05;100473.94;10345106;28;20234;-87
2023/01/01 14:24:39;;;;;;;7.28;1.30;;;;;;;16.04;44.40;100470.44;10325044;28;20230;-85
2023/01/01 14:30:01;;;;;;;7.85;1.00;;;;;;;15.86;44.44;100473.81;10345851;28;20700;-84
2023/01/01 14:35:24;;;;;;;4.15;1.25;;;;;;;16.35;43.81;100484.13;10336736;28;20692;-85
2023/01/01 14:40:46;;;;;;;5.28;1.15;;;;;;;15.91;44.93;100485.72;10314062;28;20222;-89
2023/01/01 14:46:14;;;;;;;6.38;1.27;;;;;;;16.57;43.41;100491.34;10351329;28;20202;-83
2023/01/01 14:51:41;;;;;;;5.35;1.40;;;;;;;16.60;43.42;100492.66;10326109;28;20308;-83
2023/01/01 14:57:08;;;;;;;6.50;1.40;;;;;;;16.74;43.36;100501.63;10329311;28;20630;-85
2023/01/01 15:02:36;;;;;;;3.78;1.40;;;;;;;15.98;45.67;100505.81;10318529;28;20319;-87
2023/01/01 15:08:02;;;;;;;4.80;1.55;;;;;;;16.02;45.53;100509.59;10327613;28;20237;-83
2023/01/01 15:13:27;;;;;;;6.88;1.90;;;;;;;15.70;46.40;100493.41;10325528;28;20238;-85
2023/01/01 15:18:51;;;;;;;7.22;1.17;;;;;;;15.78;45.90;100498.16;10322289;28;20229;-84
2023/01/01 15:24:19;;;;;;;4.07;1.30;;;;;;;15.94;45.67;100492.69;10311299;28;20760;-87
2023/01/01 15:29:46;;;;;;;6.00;1.40;;;;;;;15.49;46.83;100493.44;10300689;28;20304;-86
2023/01/01 15:35:31;;;;;;;7.22;1.60;;;;;;;15.66;46.85;100487.63;10302885;28;20285;-86
2023/01/01 15:40:54;;;;;;;7.30;1.67;;;;;;;15.31;48.07;100481.41;10303417;28;20260;-73
2023/01/01 15:46:21;;;;;;;5.63;1.80;;;;;;;15.77;47.34;100475.91;10310246;28;20297;-88
2023/01/01 15:51:44;;;;;;;4.57;1.20;;;;;;;15.45;47.91;100475.50;10326613;28;20253;-83
2023/01/01 15:57:17;;;;;;;4.90;1.52;;;;;;;14.98;48.48;100484.13;10322552;28;20249;-83
2023/01/01 16:02:41;;;;;;;8.70;2.00;;;;;;;15.05;48.05;100499.69;10310624;28;20202;-87
2023/01/01 16:08:04;;;;;;;2.97;1.58;;;;;;;15.41;47.20;100511.28;10313787;28;20295;-86
2023/01/01 16:13:26;;;;;;;5.40;1.50;;;;;;;15.18;47.42;100509.91;10319933;28;20300;-89
2023/01/01 16:18:48;;;;;;;6.22;1.27;;;;;;;14.99;49.42;100511.19;10320260;28;20485;-90
2023/01/01 16:24:13;;;;;;;3.17;1.13;;;;;;;14.66;51.04;100504.56;10344751;28;20284;-89
2023/01/01 16:29:37;;;;;;;4.03;1.02;;;;;;;14.16;54.08;100513.66;10317450;28;20194;-90
2023/01/01 16:34:59;;;;;;;3.13;1.27;;;;;;;14.21;54.58;100513.47;10327209;28;20235;-88
2023/01/01 16:40:21;;;;;;;3.33;1.10;;;;;;;14.23;54.71;100519.59;10326774;28;20503;-90
2023/01/01 16:45:46;;;;;;;6.13;1.07;;;;;;;14.10;55.33;100526.28;10301437;28;20209;-82
2023/01/01 16:51:16;;;;;;;4.57;1.40;;;;;;;13.98;56.71;100526.13;10321485;28;20311;-81
2023/01/01 16:56:38;;;;;;;3.97;1.20;;;;;;;13.81;57.52;100529.81;10323481;28;20256;-88
2023/01/01 17:02:00;;;;;;;2.60;1.08;;;;;;;14.06;58.51;100522.47;10328613;28;20279;-80
2023/01/01 17:07:22;;;;;;;3.10;1.23;;;;;;;14.29;58.14;100517.44;10325777;28;20283;-87
2023/01/01 17:12:44;;;;;;;2.60;1.23;;;;;;;13.63;61.46;100528.16;10271750;28;20253;-86
2023/01/01 17:18:09;;;;;;;3.73;1.50;;;;;;;13.86;61.26;100509.88;10331306;28;20308;-87
2023/01/01 17:23:36;;;;;;;3.47;1.30;;;;;;;14.07;62.18;100504.41;10289640;28;20253;-83
2023/01/01 17:29:03;;;;;;;3.70;1.27;;;;;;;13.56;63.99;100499.59;10316150;28;20236;-81
2023/01/01 17:34:29;;;;;;;3.07;1.30;;;;;;;13.47;64.26;100502.41;10317919;28;20307;-83
2023/01/01 17:39:53;;;;;;;4.10;1.30;;;;;;;13.51;64.55;100477.22;10318530;28;20245;-84
2023/01/01 17:45:17;;;;;;;3.13;1.80;;;;;;;13.59;64.16;100490.50;10324821;28;20233;-85
2023/01/01 17:50:45;;;;;;;4.15;1.48;;;;;;;13.70;64.26;100465.63;10326267;28;20213;-89
2023/01/01 17:56:11;;;;;;;3.87;1.20;;;;;;;13.84;63.72;100466.25;10309795;28;20630;-88
2023/01/01 18:01:34;;;;;;;3.55;1.30;;;;;;;13.54;64.82;100463.31;10309163;28;20230;-82
2023/01/01 18:06:57;;;;;;;8.67;3.90;;;;;;;13.58;65.52;100463.47;10312573;28;20198;-87
2023/01/01 18:12:19;;;;;;;4.10;2.00;;;;;;;13.78;65.39;100459.16;10316219;28;20282;-89
2023/01/01 18:17:42;;;;;;;6.03;3.07;;;;;;;13.64;66.06;100450.88;10300984;28;20202;-88
2023/01/01 18:23:04;;;;;;;3.77;3.20;;;;;;;13.67;65.98;100441.75;10323161;28;21006;-84
2023/01/01 18:28:29;;;;;;;7.33;4.47;;;;;;;13.18;67.64;100443.06;10315990;28;20241;-84
2023/01/01 18:33:51;;;;;;;6.87;5.57;;;;;;;13.28;68.06;100444.75;10303362;28;20308;-85
2023/01/01 18:39:19;;;;;;;5.67;3.40;;;;;;;13.89;65.88;100435.06;10321925;28;20284;-84
2023/01/01 18:44:42;;;;;;;3.83;2.37;;;;;;;13.57;66.57;100440.06;10327613;28;20480;-83
2023/01/01 18:50:26;;;;;;;6.53;3.10;;;;;;;13.23;67.71;100434.44;10320285;28;20234;-83
2023/01/01 18:55:56;;;;;;;7.27;3.70;;;;;;;13.65;66.91;100430.00;10323761;28;20256;-82
2023/01/01 19:01:21;;;;;;;6.80;3.83;;;;;;;13.79;66.79;100421.34;10299100;28;20291;-83
2023/01/01 19:06:44;;;;;;;8.80;3.70;;;;;;;13.65;67.08;100406.59;10307613;28;20252;-83
2023/01/01 19:12:11;;;;;;;8.70;7.07;;;;;;;13.61;67.04;100399.97;10345041;28;20237;-85
2023/01/01 19:17:33;;;;;;;4.63;2.90;;;;;;;13.20;68.64;100395.66;10339404;28;20591;-84
2023/01/01 19:22:56;;;;;;;5.77;2.70;;;;;;;13.11;68.76;100392.03;10335126;28;20336;-83
2023/01/01 19:28:32;;;;;;;7.10;3.33;;;;;;;12.92;68.87;100388.69;10330471;28;20234;-88
2023/01/01 19:33:54;;;;;;;6.00;3.40;;;;;;;13.11;68.32;100386.41;10329698;28;20646;-84
2023/01/01 19:39:17;;;;;;;8.02;3.10;;;;;;;12.68;69.83;100391.97;10310394;28;20253;-82
2023/01/01 19:44:39;;;;;;;6.70;2.90;;;;;;;13.21;68.36;100380.44;10330390;28;20221;-83
2023/01/01 19:50:01;;;;;;;9.13;3.23;;;;;;;12.93;69.07;100373.47;10313598;28;20209;-86
2023/01/01 19:55:25;;;;;;;10.13;3.80;;;;;;;13.47;66.78;100360.69;10308839;28;20700;-86
2023/01/01 20:00:48;;;;;;;5.63;3.30;;;;;;;13.07;67.51;100345.97;10320374;28;20845;-88
2023/01/01 20:06:11;;;;;;;7.27;3.73;;;;;;;13.26;67.41;100343.66;10330757;28;20603;-88
2023/01/01 20:11:34;;;;;;;8.73;3.53;;;;;;;13.08;68.03;100314.66;10321411;28;20272;-87
2023/01/01 20:16:58;;;;;;;6.87;4.20;;;;;;;13.24;66.98;100308.53;10313699;28;20217;-89
2023/01/01 20:22:20;;;;;;;9.13;3.47;;;;;;;13.72;65.03;100288.50;10301566;28;20202;-89
2023/01/01 20:33:24;;;;;;;7.73;2.43;;;;;;;13.49;65.85;100269.00;10333351;28;20267;-87
2023/01/01 20:38:46;;;;;;;5.87;2.77;;;;;;;13.24;66.41;100278.38;10339094;28;20618;-84
2023/01/01 20:44:09;;;;;;;5.83;3.07;;;;;;;13.73;64.29;100261.97;10318645;28;20278;-87
2023/01/01 20:49:31;;;;;;;6.88;3.42;;;;;;;14.15;63.22;100248.81;10339429;28;20198;-89
2023/01/01 20:54:54;;;;;;;5.33;3.00;;;;;;;13.61;64.98;100226.06;10314611;28;20260;-88
2023/01/01 21:00:18;;;;;;;8.10;3.03;;;;;;;13.37;66.05;100208.91;10319291;28;20224;-89
2023/01/01 21:05:40;;;;;;;8.13;3.17;;;;;;;13.33;66.02;100208.72;10324266;28;20280;-89
2023/01/01 21:11:04;;;;;;;5.22;2.67;;;;;;;13.47;65.22;100211.34;10334940;28;20245;-85
2023/01/01 21:16:37;;;;;;;5.30;3.97;;;;;;;13.63;64.80;100194.72;10324809;28;20221;-87
2023/01/01 21:21:59;;;;;;;9.35;3.10;;;;;;;13.79;64.69;100198.63;10327147;28;20226;-88
2023/01/01 21:27:32;;;;;;;6.97;3.17;;;;;;;12.94;67.69;100195.75;10332756;28;20270;-87
2023/01/01 21:32:54;;;;;;;5.63;2.93;;;;;;;13.26;66.33;100182.25;10309147;28;20269;-86
2023/01/01 21:38:30;;;;;;;8.13;3.10;;;;;;;13.61;64.78;100168.88;10340904;28;20260;-87
2023/01/01 21:43:55;;;;;;;4.73;2.70;;;;;;;14.06;62.18;100169.91;10332301;28;20241;-87
2023/01/01 21:49:23;;;;;;;4.80;2.50;;;;;;;14.32;61.65;100163.25;10342189;28;20201;-85
2023/01/01 21:54:47;;;;;;;7.70;2.87;;;;;;;14.53;60.27;100172.53;10338097;28;20250;-85
2023/01/01 22:00:18;;;;;;;6.87;2.93;;;;;;;13.99;62.18;100175.25;10338563;28;20280;-88
2023/01/01 22:05:41;;;;;;;7.50;2.97;;;;;;;13.59;62.96;100157.09;10352600;28;20221;-87
2023/01/01 22:11:06;;;;;;;5.20;2.28;;;;;;;13.79;61.99;100142.25;10336532;28;20253;-86
2023/01/01 22:16:28;;;;;;;7.07;2.43;;;;;;;14.05;61.65;100140.06;10329041;28;20480;-86
2023/01/01 22:21:52;;;;;;;4.93;2.30;;;;;;;13.72;62.21;100139.94;10337187;28;20292;-88
2023/01/01 22:27:23;;;;;;;4.30;2.50;;;;;;;14.11;60.98;100144.31;10343696;28;20248;-87
2023/01/01 22:32:52;;;;;;;7.27;2.50;;;;;;;14.20;60.68;100144.25;10323402;28;20267;-85
2023/01/01 22:38:17;;;;;;;5.57;2.33;;;;;;;14.19;60.54;100123.69;10355280;28;20328;-87
2023/01/01 22:43:42;;;;;;;11.13;2.75;;;;;;;14.40;59.91;100123.66;10332703;28;20198;-88
2023/01/01 22:49:22;;;;;;;6.53;2.40;;;;;;;14.71;58.10;100134.50;10346296;28;20538;-86
2023/01/01 22:54:44;;;;;;;5.57;2.40;;;;;;;14.62;58.44;100122.44;10324790;28;20265;-85
2023/01/01 23:00:07;;;;;;;6.30;2.25;;;;;;;14.54;58.82;100120.56;10344736;28;20205;-86
2023/01/01 23:05:29;;;;;;;8.57;2.53;;;;;;;14.48;58.33;100114.25;10342172;28;20273;-85
2023/01/01 23:10:52;;;;;;;4.90;2.15;;;;;;;14.10;58.90;100096.69;10353973;28;20206;-85
2023/01/01 23:16:14;;;;;;;4.63;2.10;;;;;;;14.99;56.31;100087.47;10334619;28;20268;-87
2023/01/01 23:21:37;;;;;;;6.80;2.08;;;;;;;14.61;56.67;100103.88;10339194;28;20190;-85
2023/01/01 23:27:01;;;;;;;9.83;2.57;;;;;;;14.69;57.17;100077.56;10350517;28;20225;-88
2023/01/01 23:32:23;;;;;;;6.63;2.37;;;;;;;14.64;56.67;100069.28;10331780;28;20201;-88
2023/01/01 23:37:45;;;;;;;7.80;1.83;;;;;;;14.87;55.75;100062.03;10360255;28;20205;-87
2023/01/01 23:43:07;;;;;;;7.40;2.40;;;;;;;14.66;56.38;100043.53;10350399;28;20224;-87
2023/01/01 23:48:29;;;;;;;6.93;1.73;;;;;;;14.94;55.12;100065.13;10323707;28;20264;-87
2023/01/01 23:53:52;;;;;;;3.13;1.65;;;;;;;15.33;53.98;100054.28;10350940;28;20213;-88
2023/01/01 23:59:15;;;;;;;5.82;1.92;;;;;;;14.83;54.59;100040.53;10339154;28;20272;-88
